Main page
METAR-TAF:

METAR-TAF

Airports :

Diori Hamani International Airport

Niamey, Niger

latitude: 13-29N, longitude: 002-10E, elevation: 223 m

Current weather observation

The report was made 1 hour and 1 minutes ago, at 19:00 UTC
Wind 3 kt from the East/Southeast
Temperature 36°C
Humidity 22%
Pressure 1010 hPa
Visibility: 8000 m

METAR: DRRN 281900Z 11003KT 8000 NSC 36/11 Q1010 NOSIG

Time: 21:01 (20:01 UTC)

Forecast

The report was made 3 hours and 1 minutes ago, at 17:00 UTC
Forecast valid from 28 at 18 UTC to 29 at 24 UTC
Wind 10 kt from the Southeast
Visibility: 8000 m
Temporary
from 29 at 06 UTC to 29 at 08 UTC
Visibility: 4000 m
widespread dust

TAF: DRRN 281700Z 2818/2924 14010KT 8000 NSC TEMPO 2906/2908 4000 DU

Weather observations and forecasts of more than 4000 airports (METAR and TAF reports).

The available stations are represented by yellow and red dots on the map.

Hover mouse over dot to see the name of the station.

Then click to see weather observations and forecasts.

To change the map : click on the green buttons with a black cross to zoom in, on the green button with a dash to zoom out, or on the green arrows for adjacent maps.


METAR-TAF: